createdAt,value
2022-10-15T00:01:35.397Z,12.10
2022-10-15T00:04:40.202Z,12.10
2022-10-15T00:07:47.786Z,12.07
2022-10-15T00:10:52.279Z,12.11
2022-10-15T00:13:59.255Z,12.07
2022-10-15T00:17:03.985Z,12.07
2022-10-15T00:20:12.129Z,12.06
2022-10-15T00:23:18.692Z,12.04
2022-10-15T00:26:26.655Z,12.03
2022-10-15T00:29:31.816Z,12.05
2022-10-15T00:32:36.579Z,12.01
2022-10-15T00:35:44.084Z,12.03
2022-10-15T00:38:50.571Z,12.01
2022-10-15T00:41:55.403Z,12.03
2022-10-15T00:45:01.672Z,12.03
2022-10-15T00:48:08.214Z,11.97
2022-10-15T00:51:13.540Z,12.03
2022-10-15T00:54:20.183Z,11.94
2022-10-15T00:57:26.128Z,12.00
2022-10-15T01:00:31.643Z,11.98
2022-10-15T01:03:38.122Z,11.97
2022-10-15T01:06:42.891Z,11.92
2022-10-15T01:09:49.150Z,11.90
2022-10-15T01:13:04.361Z,11.90
2022-10-15T01:16:17.301Z,11.91
2022-10-15T01:19:39.171Z,11.91
2022-10-15T01:22:57.048Z,11.86
2022-10-15T01:26:22.456Z,11.87
2022-10-15T01:29:49.505Z,11.85
2022-10-15T01:33:16.258Z,11.81
2022-10-15T01:36:28.082Z,11.79
2022-10-15T01:39:35.970Z,11.76
2022-10-15T01:42:49.920Z,11.78
2022-10-15T01:45:59.527Z,11.72
2022-10-15T01:49:26.427Z,11.60
2022-10-15T01:52:36.068Z,11.65
2022-10-15T01:55:44.021Z,11.67
2022-10-15T01:58:51.095Z,11.60
2022-10-15T02:01:58.009Z,11.64
2022-10-15T02:05:06.767Z,11.62
2022-10-15T02:08:21.178Z,11.59
2022-10-15T02:11:28.948Z,11.54
2022-10-15T02:14:39.547Z,11.56
2022-10-15T02:17:50.478Z,11.56
2022-10-15T02:21:00.179Z,11.53
2022-10-15T02:24:10.166Z,11.45
2022-10-15T02:27:17.037Z,11.50
2022-10-15T02:30:22.248Z,11.45
2022-10-15T02:33:27.366Z,11.46
2022-10-15T02:36:34.076Z,11.41
2022-10-15T02:39:45.773Z,11.40
2022-10-15T02:42:51.728Z,11.44
2022-10-15T02:45:56.418Z,11.45
2022-10-15T02:49:01.274Z,11.41
2022-10-15T02:52:08.867Z,11.41
2022-10-15T02:55:13.663Z,11.47
2022-10-15T02:58:19.048Z,11.49
2022-10-15T03:01:24.658Z,11.52
2022-10-15T03:04:30.155Z,11.54
2022-10-15T03:07:38.087Z,11.47
2022-10-15T03:10:42.968Z,11.42
2022-10-15T03:13:48.126Z,11.43
2022-10-15T03:16:53.198Z,11.45
2022-10-15T03:19:57.983Z,11.46
2022-10-15T03:23:04.099Z,11.47
2022-10-15T03:26:12.013Z,11.54
2022-10-15T03:29:17.960Z,11.55
2022-10-15T03:32:32.006Z,11.56
2022-10-15T03:35:40.318Z,11.56
2022-10-15T03:38:48.125Z,11.54
2022-10-15T03:41:54.741Z,11.58
2022-10-15T03:45:09.022Z,11.53
2022-10-15T03:48:17.274Z,11.56
2022-10-15T03:51:24.610Z,11.61
2022-10-15T03:54:40.511Z,11.59
2022-10-15T03:57:45.996Z,11.67
2022-10-15T04:00:50.871Z,11.64
2022-10-15T04:03:55.988Z,11.70
2022-10-15T04:07:03.426Z,11.69
2022-10-15T04:10:12.857Z,11.72
2022-10-15T04:13:18.175Z,11.69
2022-10-15T04:16:23.140Z,11.75
2022-10-15T04:19:28.020Z,11.70
2022-10-15T04:22:42.428Z,11.74
2022-10-15T04:25:48.572Z,11.68
2022-10-15T04:28:53.679Z,11.77
2022-10-15T04:32:00.970Z,11.77
2022-10-15T04:35:07.760Z,11.75
2022-10-15T04:38:29.079Z,11.78
2022-10-15T04:41:41.223Z,11.76
2022-10-15T04:44:50.879Z,11.83
2022-10-15T04:47:55.666Z,11.80
2022-10-15T04:51:06.397Z,11.85
2022-10-15T04:54:22.443Z,11.91
2022-10-15T04:57:56.216Z,11.92
2022-10-15T05:01:12.089Z,11.89
2022-10-15T05:04:39.593Z,11.93
2022-10-15T05:07:44.929Z,12.01
2022-10-15T05:10:50.313Z,12.03
2022-10-15T05:13:58.658Z,12.03
2022-10-15T05:17:04.356Z,12.05
2022-10-15T05:20:15.167Z,12.11
2022-10-15T05:23:20.314Z,12.10
2022-10-15T05:26:37.575Z,12.13
2022-10-15T05:29:44.004Z,12.14
2022-10-15T05:32:53.446Z,12.16
2022-10-15T05:35:59.567Z,12.20
2022-10-15T05:39:07.161Z,12.20
2022-10-15T05:42:18.227Z,12.27
2022-10-15T05:45:31.582Z,12.31
2022-10-15T05:48:41.951Z,12.31
2022-10-15T05:51:46.722Z,12.37
2022-10-15T05:55:02.741Z,12.40
2022-10-15T05:58:08.088Z,12.44
2022-10-15T06:01:14.926Z,12.44
2022-10-15T06:04:20.088Z,12.47
2022-10-15T06:07:25.467Z,12.51
2022-10-15T06:10:30.940Z,12.56
2022-10-15T06:13:36.172Z,12.63
2022-10-15T06:16:42.395Z,12.67
2022-10-15T06:19:47.164Z,12.72
2022-10-15T06:22:51.928Z,12.74
2022-10-15T06:25:56.736Z,12.81
2022-10-15T06:29:01.851Z,12.81
2022-10-15T06:32:11.080Z,12.84
2022-10-15T06:35:23.087Z,12.90
2022-10-15T06:38:27.986Z,12.95
2022-10-15T06:41:32.783Z,12.97
2022-10-15T06:44:37.549Z,12.99
2022-10-15T06:47:44.029Z,13.01
2022-10-15T06:50:49.119Z,13.03
2022-10-15T06:53:53.842Z,13.05
2022-10-15T06:56:58.675Z,13.05
2022-10-15T07:00:03.413Z,13.04
2022-10-15T07:03:11.048Z,13.03
2022-10-15T07:06:16.717Z,13.07
2022-10-15T07:09:21.743Z,13.11
2022-10-15T07:12:26.902Z,13.18
2022-10-15T07:15:32.019Z,13.20
2022-10-15T07:18:39.559Z,13.29
2022-10-15T07:21:44.328Z,13.32
2022-10-15T07:24:49.082Z,13.38
2022-10-15T07:27:55.514Z,13.43
2022-10-15T07:31:03.242Z,13.45
2022-10-15T07:34:09.507Z,13.46
2022-10-15T07:37:14.226Z,13.52
2022-10-15T07:40:19.563Z,13.52
2022-10-15T07:43:24.298Z,13.60
2022-10-15T07:46:29.481Z,13.62
2022-10-15T07:49:35.738Z,13.66
2022-10-15T07:52:40.682Z,13.71
2022-10-15T07:55:45.459Z,13.83
2022-10-15T07:58:52.442Z,13.82
2022-10-15T08:01:57.131Z,13.82
2022-10-15T08:05:03.482Z,13.83
2022-10-15T08:08:09.029Z,13.84
2022-10-15T08:11:16.150Z,13.91
2022-10-15T08:14:20.909Z,13.91
2022-10-15T08:17:25.916Z,13.93
2022-10-15T08:20:32.165Z,13.89
2022-10-15T08:23:37.343Z,13.95
2022-10-15T08:26:42.432Z,13.92
2022-10-15T08:29:47.715Z,13.91
2022-10-15T08:32:52.526Z,13.94
2022-10-15T08:35:59.348Z,14.04
2022-10-15T08:39:07.122Z,14.09
2022-10-15T08:42:20.764Z,14.09
2022-10-15T08:45:29.811Z,14.11
2022-10-15T08:48:37.978Z,14.21
2022-10-15T08:51:49.609Z,14.11
2022-10-15T08:54:57.228Z,14.14
2022-10-15T08:58:08.152Z,14.15
2022-10-15T09:01:23.207Z,14.20
2022-10-15T09:04:34.159Z,14.23
2022-10-15T09:07:47.808Z,14.30
2022-10-15T09:11:01.126Z,14.33
2022-10-15T09:14:10.091Z,14.29
2022-10-15T09:17:21.892Z,14.35
2022-10-15T09:20:32.153Z,14.33
2022-10-15T09:23:39.044Z,14.37
2022-10-15T09:26:59.887Z,14.36
2022-10-15T09:30:14.076Z,14.35
2022-10-15T09:33:27.401Z,14.33
2022-10-15T09:36:41.534Z,14.38
2022-10-15T09:40:34.020Z,14.42
2022-10-15T09:43:41.617Z,14.50
2022-10-15T09:46:47.904Z,14.55
2022-10-15T09:49:52.871Z,14.63
2022-10-15T09:53:09.630Z,14.65
2022-10-15T09:56:19.918Z,14.72
2022-10-15T09:59:26.724Z,14.70
2022-10-15T10:02:31.918Z,14.80
2022-10-15T10:05:40.058Z,14.73
2022-10-15T10:08:53.467Z,14.77
2022-10-15T10:12:03.432Z,14.71
2022-10-15T10:15:28.511Z,14.78
2022-10-15T10:18:33.867Z,14.72
2022-10-15T10:21:42.123Z,14.67
2022-10-15T10:24:47.227Z,14.68
2022-10-15T10:27:53.912Z,14.73
2022-10-15T10:31:05.687Z,14.69
2022-10-15T10:34:16.139Z,14.67
2022-10-15T10:37:24.402Z,14.75
2022-10-15T10:40:31.572Z,14.69
2022-10-15T10:43:54.831Z,14.61
2022-10-15T10:47:13.722Z,14.75
2022-10-15T10:50:32.232Z,14.73
2022-10-15T10:53:48.498Z,14.62
2022-10-15T10:56:54.039Z,14.74
2022-10-15T11:00:00.480Z,14.75
2022-10-15T11:03:05.624Z,14.84
2022-10-15T11:06:52.830Z,14.92
2022-10-15T11:10:04.899Z,14.89
2022-10-15T11:13:31.744Z,14.89
2022-10-15T11:16:48.868Z,14.84
2022-10-15T11:23:38.081Z,14.70
2022-10-15T11:27:10.765Z,14.78
2022-10-15T11:30:33.297Z,14.78
2022-10-15T11:33:53.012Z,14.72
2022-10-15T11:37:14.342Z,14.70
2022-10-15T11:40:25.929Z,14.71
2022-10-15T11:43:48.772Z,14.71
2022-10-15T11:47:09.180Z,14.79
2022-10-15T11:50:29.675Z,14.78
2022-10-15T11:54:07.022Z,14.82
2022-10-15T11:57:15.528Z,14.76
2022-10-15T12:00:32.887Z,14.86
2022-10-15T12:03:45.363Z,14.84
2022-10-15T12:06:54.297Z,14.86
2022-10-15T12:10:07.389Z,14.87
2022-10-15T12:13:20.586Z,14.92
2022-10-15T12:16:32.365Z,14.90
2022-10-15T12:19:42.127Z,14.89
2022-10-15T12:23:00.415Z,14.84
2022-10-15T12:26:28.683Z,14.82
2022-10-15T12:29:33.945Z,14.74
2022-10-15T12:32:41.574Z,14.78
2022-10-15T12:35:56.216Z,14.70
2022-10-15T12:39:11.682Z,14.79
2022-10-15T12:42:29.783Z,14.58
2022-10-15T12:45:40.213Z,14.60
2022-10-15T12:48:47.320Z,14.61
2022-10-15T12:51:56.032Z,14.59
2022-10-15T12:55:23.955Z,14.49
2022-10-15T12:58:35.430Z,14.56
2022-10-15T13:01:55.206Z,14.51
2022-10-15T13:05:00.022Z,14.48
2022-10-15T13:08:13.903Z,14.50
2022-10-15T13:11:25.672Z,14.39
2022-10-15T13:14:36.186Z,14.42
2022-10-15T13:17:41.291Z,14.45
2022-10-15T13:20:50.912Z,14.40
2022-10-15T13:23:55.707Z,14.44
2022-10-15T13:27:03.102Z,14.43
2022-10-15T13:30:13.754Z,14.39
2022-10-15T13:33:19.137Z,14.30
2022-10-15T13:36:26.180Z,14.33
2022-10-15T13:43:00.413Z,14.38
2022-10-15T13:46:05.158Z,14.34
2022-10-15T13:49:14.094Z,14.37
2022-10-15T13:52:19.112Z,14.39
2022-10-15T13:55:28.510Z,14.31
2022-10-15T13:58:36.363Z,14.35
2022-10-15T14:01:47.764Z,14.39
2022-10-15T14:04:52.647Z,14.31
2022-10-15T14:07:57.884Z,14.31
2022-10-15T14:11:02.837Z,14.41
2022-10-15T14:14:31.764Z,14.43
2022-10-15T14:17:36.877Z,14.39
2022-10-15T14:20:46.079Z,14.35
2022-10-15T14:23:51.382Z,14.41
2022-10-15T14:26:56.272Z,14.45
2022-10-15T14:30:03.151Z,14.34
2022-10-15T14:33:34.508Z,14.41
2022-10-15T14:36:44.130Z,14.39
2022-10-15T14:39:49.983Z,14.43
2022-10-15T14:43:06.719Z,14.45
2022-10-15T14:46:19.117Z,14.45
2022-10-15T14:49:29.157Z,14.46
2022-10-15T14:52:34.505Z,14.46
2022-10-15T14:55:44.355Z,14.47
2022-10-15T14:58:52.377Z,14.43
2022-10-15T15:02:03.074Z,14.50
2022-10-15T15:05:19.613Z,14.45
2022-10-15T15:08:25.631Z,14.47
2022-10-15T15:11:30.509Z,14.49
2022-10-15T15:14:36.154Z,14.54
2022-10-15T15:17:42.546Z,14.51
2022-10-15T15:20:48.388Z,14.53
2022-10-15T15:23:53.424Z,14.55
2022-10-15T15:26:58.092Z,14.57
2022-10-15T15:30:02.829Z,14.54
2022-10-15T15:33:13.507Z,14.55
2022-10-15T15:36:22.569Z,14.56
2022-10-15T15:39:28.550Z,14.52
2022-10-15T15:42:33.280Z,14.52
2022-10-15T15:45:38.908Z,14.53
2022-10-15T15:48:45.207Z,14.56
2022-10-15T15:51:50.022Z,14.58
2022-10-15T15:54:54.795Z,14.56
2022-10-15T15:57:59.703Z,14.60
2022-10-15T16:01:04.543Z,14.59
2022-10-15T16:04:10.693Z,14.59
2022-10-15T16:07:17.896Z,14.55
2022-10-15T16:10:25.359Z,14.56
2022-10-15T16:13:30.639Z,14.58
2022-10-15T16:16:36.045Z,14.51
2022-10-15T16:19:42.340Z,14.47
2022-10-15T16:22:51.247Z,14.45
2022-10-15T16:25:57.504Z,14.38
2022-10-15T16:29:02.267Z,14.47
2022-10-15T16:32:07.231Z,14.45
2022-10-15T16:35:16.042Z,14.41
2022-10-15T16:38:20.906Z,14.43
2022-10-15T16:41:25.738Z,14.45
2022-10-15T16:44:30.785Z,14.46
2022-10-15T16:47:35.631Z,14.46
2022-10-15T16:50:41.824Z,14.44
2022-10-15T16:53:48.236Z,14.54
2022-10-15T16:56:53.646Z,14.49
2022-10-15T16:59:58.444Z,14.46
2022-10-15T17:03:04.172Z,14.50
2022-10-15T17:06:14.004Z,14.48
2022-10-15T17:09:19.132Z,14.49
2022-10-15T17:12:24.498Z,14.55
2022-10-15T17:15:29.594Z,14.53
2022-10-15T17:18:34.299Z,14.51
2022-10-15T17:21:42.489Z,14.47
2022-10-15T17:24:50.600Z,14.49
2022-10-15T17:27:55.486Z,14.52
2022-10-15T17:31:05.217Z,14.54
2022-10-15T17:34:12.489Z,14.51
2022-10-15T17:37:19.343Z,14.52
2022-10-15T17:40:24.310Z,14.53
2022-10-15T17:43:29.452Z,14.53
2022-10-15T17:46:34.399Z,14.54
2022-10-15T17:49:39.199Z,14.51
2022-10-15T17:52:45.375Z,14.56
2022-10-15T17:55:50.408Z,14.45
2022-10-15T17:58:56.305Z,14.47
2022-10-15T18:02:02.352Z,14.47
2022-10-15T18:05:11.902Z,14.43
2022-10-15T18:08:19.203Z,14.47
2022-10-15T18:11:27.133Z,14.48
2022-10-15T18:14:32.662Z,14.47
2022-10-15T18:17:37.474Z,14.51
2022-10-15T18:20:44.051Z,14.47
2022-10-15T18:23:50.579Z,14.45
2022-10-15T18:26:55.320Z,14.50
2022-10-15T18:30:00.115Z,14.47
2022-10-15T18:33:05.448Z,14.45
2022-10-15T18:36:13.568Z,14.50
2022-10-15T18:39:19.949Z,14.46
2022-10-15T18:42:24.962Z,14.51
2022-10-15T18:45:30.118Z,14.54
2022-10-15T18:48:36.576Z,14.38
2022-10-15T18:51:42.731Z,14.40
2022-10-15T18:54:48.846Z,14.40
2022-10-15T18:57:53.626Z,14.40
2022-10-15T19:00:58.735Z,14.40
2022-10-15T19:04:05.812Z,14.41
2022-10-15T19:07:13.286Z,14.35
2022-10-15T19:10:20.097Z,14.34
2022-10-15T19:13:24.965Z,14.43
2022-10-15T19:16:30.311Z,14.47
2022-10-15T19:19:40.061Z,14.42
2022-10-15T19:22:46.056Z,14.49
2022-10-15T19:25:52.259Z,14.49
2022-10-15T19:28:57.921Z,14.47
2022-10-15T19:32:03.785Z,14.43
2022-10-15T19:35:09.968Z,14.48
2022-10-15T19:38:19.053Z,14.54
2022-10-15T19:41:25.943Z,14.56
2022-10-15T19:44:31.125Z,14.53
2022-10-15T19:47:35.891Z,14.55
2022-10-15T19:50:43.143Z,14.53
2022-10-15T19:53:51.732Z,14.54
2022-10-15T19:56:57.915Z,14.54
2022-10-15T20:00:04.113Z,14.52
2022-10-15T20:03:17.283Z,14.53
2022-10-15T20:06:22.602Z,14.45
2022-10-15T20:09:27.423Z,14.45
2022-10-15T20:12:34.560Z,14.51
2022-10-15T20:15:42.635Z,14.52
2022-10-15T20:18:48.140Z,14.44
2022-10-15T20:21:53.490Z,14.47
2022-10-15T20:24:58.678Z,14.45
2022-10-15T20:28:04.860Z,14.45
2022-10-15T20:31:14.229Z,14.51
2022-10-15T20:34:19.212Z,14.54
2022-10-15T20:37:23.911Z,14.51
2022-10-15T20:40:28.930Z,14.47
2022-10-15T20:43:35.539Z,14.48
2022-10-15T20:46:44.389Z,14.44
2022-10-15T20:49:50.919Z,14.49
2022-10-15T20:52:57.226Z,14.42
2022-10-15T20:56:02.688Z,14.51
2022-10-15T20:59:08.979Z,14.55
2022-10-15T21:02:13.689Z,14.46
2022-10-15T21:05:18.972Z,14.48
2022-10-15T21:08:24.630Z,14.46
2022-10-15T21:11:29.413Z,14.43
2022-10-15T21:14:35.720Z,14.48
2022-10-15T21:17:41.062Z,14.47
2022-10-15T21:20:46.067Z,14.48
2022-10-15T21:23:51.350Z,14.46
2022-10-15T21:26:56.467Z,14.45
2022-10-15T21:30:02.546Z,14.43
2022-10-15T21:33:07.919Z,14.45
2022-10-15T21:36:15.863Z,14.43
2022-10-15T21:39:20.705Z,14.47
2022-10-15T21:42:26.566Z,14.40
2022-10-15T21:45:33.015Z,14.34
2022-10-15T21:48:38.795Z,14.35
2022-10-15T21:51:43.771Z,14.43
2022-10-15T21:54:48.535Z,14.41
2022-10-15T21:57:53.740Z,14.43
2022-10-15T22:01:10.441Z,14.46
2022-10-15T22:04:16.694Z,14.44
2022-10-15T22:07:21.959Z,14.44
2022-10-15T22:10:27.079Z,14.41
2022-10-15T22:13:32.053Z,14.47
2022-10-15T22:16:40.182Z,14.41
2022-10-15T22:19:44.951Z,14.46
2022-10-15T22:22:51.251Z,14.44
2022-10-15T22:25:59.678Z,14.46
2022-10-15T22:29:08.035Z,14.42
2022-10-15T22:32:16.742Z,14.46
2022-10-15T22:35:21.672Z,14.47
2022-10-15T22:38:26.595Z,14.52
2022-10-15T22:41:33.562Z,14.44
2022-10-15T22:44:38.276Z,14.54
2022-10-15T22:47:44.511Z,14.53
2022-10-15T22:50:57.619Z,14.50
2022-10-15T22:54:03.216Z,14.50
2022-10-15T22:57:08.232Z,14.54
2022-10-15T23:00:15.106Z,14.53
2022-10-15T23:03:21.717Z,14.43
2022-10-15T23:06:27.548Z,14.50
2022-10-15T23:09:32.547Z,14.41
2022-10-15T23:12:38.031Z,14.46
2022-10-15T23:15:43.620Z,14.43
2022-10-15T23:18:55.375Z,14.38
2022-10-15T23:22:02.670Z,14.45
2022-10-15T23:25:10.126Z,14.46
2022-10-15T23:28:15.739Z,14.44
2022-10-15T23:31:22.531Z,14.34
2022-10-15T23:34:30.163Z,14.39
2022-10-15T23:37:36.212Z,14.42
2022-10-15T23:40:41.475Z,14.42
2022-10-15T23:43:46.206Z,14.40
2022-10-15T23:46:51.340Z,14.43
2022-10-15T23:49:57.598Z,14.47
2022-10-15T23:53:02.448Z,14.36
2022-10-15T23:56:07.517Z,14.42
2022-10-15T23:59:13.202Z,14.46
